Time;durP1;ratioP1;P1;durP2;ratioP2;P2;SDS_P1;SDS_P2;PMS_P1;PMS_P2;Temp;Humidity;BMP_temperature;BMP_pressure;BME280_temperature;BME280_humidity;BME280_pressure;Samples;Min_cycle;Max_cycle;Signal;HPM_P1;HPM_P2
2024/03/20 00:00:20;;;;;;;17.27;10.60;;;;;;;;;;7559724;19;20022;-73
2024/03/20 00:02:52;;;;;;;14.80;9.73;;;;;;;;;;7570717;19;20047;-73
2024/03/20 00:05:24;;;;;;;19.83;11.13;;;;;;;;;;7560868;19;20133;-75
2024/03/20 00:07:55;;;;;;;13.95;9.05;;;;;;;;;;7574420;19;20022;-73
2024/03/20 00:10:27;;;;;;;16.23;8.77;;;;;;;;;;7564715;19;20018;-74
2024/03/20 00:12:58;;;;;;;20.80;9.80;;;;;;;;;;7564926;19;20015;-73
2024/03/20 00:15:30;;;;;;;14.15;9.40;;;;;;;;;;7575903;19;22036;-73
2024/03/20 00:18:01;;;;;;;16.13;8.70;;;;;;;;;;7577254;19;20031;-73
2024/03/20 00:20:33;;;;;;;14.20;7.50;;;;;;;;;;7545333;19;20033;-74
2024/03/20 00:23:04;;;;;;;14.48;8.88;;;;;;;;;;7575806;19;20352;-73
2024/03/20 00:25:36;;;;;;;14.45;8.60;;;;;;;;;;7562778;19;20029;-73
2024/03/20 00:28:08;;;;;;;14.90;9.05;;;;;;;;;;7560612;19;20022;-75
2024/03/20 00:30:39;;;;;;;11.88;7.45;;;;;;;;;;7536895;19;20956;-73
2024/03/20 00:33:11;;;;;;;16.25;8.20;;;;;;;;;;7567873;19;21340;-73
2024/03/20 00:35:42;;;;;;;14.35;8.85;;;;;;;;;;7561662;19;20022;-73
2024/03/20 00:38:14;;;;;;;15.85;8.48;;;;;;;;;;7570736;19;20161;-73
2024/03/20 00:40:48;;;;;;;13.60;7.60;;;;;;;;;;7574234;19;20105;-73
2024/03/20 00:43:19;;;;;;;15.93;8.07;;;;;;;;;;7570773;19;20014;-73
2024/03/20 00:45:51;;;;;;;14.52;7.20;;;;;;;;;;7577601;19;20014;-73
2024/03/20 00:48:22;;;;;;;12.68;8.10;;;;;;;;;;7571654;19;20015;-74
2024/03/20 00:50:54;;;;;;;12.32;7.05;;;;;;;;;;7557570;19;20027;-74
2024/03/20 00:53:25;;;;;;;15.20;7.47;;;;;;;;;;7559547;19;20157;-73
2024/03/20 00:55:57;;;;;;;12.60;7.25;;;;;;;;;;7574355;19;20023;-74
2024/03/20 00:58:30;;;;;;;12.48;7.40;;;;;;;;;;7570519;19;20053;-74
2024/03/20 01:01:01;;;;;;;13.90;7.88;;;;;;;;;;7573448;19;20317;-74
2024/03/20 01:03:33;;;;;;;11.20;7.22;;;;;;;;;;7571499;19;21516;-74
2024/03/20 01:06:04;;;;;;;12.07;7.75;;;;;;;;;;7574686;19;20022;-73
2024/03/20 01:08:39;;;;;;;26.65;7.72;;;;;;;;;;7574431;19;20033;-73
2024/03/20 01:11:11;;;;;;;10.65;7.15;;;;;;;;;;7583573;19;20786;-73
2024/03/20 01:13:42;;;;;;;11.90;7.15;;;;;;;;;;7578214;19;20661;-72
2024/03/20 01:16:14;;;;;;;14.20;7.43;;;;;;;;;;7590716;19;20015;-73
2024/03/20 01:18:46;;;;;;;14.02;7.65;;;;;;;;;;7590613;19;20018;-73
2024/03/20 01:21:18;;;;;;;11.52;7.55;;;;;;;;;;7586919;19;20022;-74
2024/03/20 01:23:49;;;;;;;15.38;7.93;;;;;;;;;;7568816;19;20033;-74
2024/03/20 01:26:22;;;;;;;12.90;7.25;;;;;;;;;;7577467;19;20018;-74
2024/03/20 01:28:53;;;;;;;12.95;7.57;;;;;;;;;;7586345;19;20506;-74
2024/03/20 01:31:25;;;;;;;12.18;7.72;;;;;;;;;;7577984;19;20048;-74
2024/03/20 01:33:57;;;;;;;9.90;7.40;;;;;;;;;;7582871;19;20085;-74
2024/03/20 01:36:28;;;;;;;12.85;7.93;;;;;;;;;;7575352;19;20022;-74
2024/03/20 01:39:02;;;;;;;14.32;7.70;;;;;;;;;;7583383;19;20485;-74
2024/03/20 01:41:34;;;;;;;;;;;;;;;;;;7548704;19;21065;-74
2024/03/20 01:44:06;;;;;;;14.63;8.23;;;;;;;;;;7590662;19;19944;-74
2024/03/20 01:46:40;;;;;;;14.57;7.95;;;;;;;;;;7576742;19;20022;-74
2024/03/20 01:49:12;;;;;;;;;;;;;;;;;;7584705;19;20029;-74
2024/03/20 01:51:44;;;;;;;11.07;6.25;;;;;;;;;;7581195;19;21216;-74
2024/03/20 01:54:16;;;;;;;14.73;8.48;;;;;;;;;;7563602;19;20215;-75
2024/03/20 01:56:48;;;;;;;14.63;8.10;;;;;;;;;;7575575;19;20014;-74
2024/03/20 01:59:19;;;;;;;9.65;6.85;;;;;;;;;;7580570;19;20023;-75
2024/03/20 02:01:51;;;;;;;10.50;6.03;;;;;;;;;;7580955;19;20404;-74
2024/03/20 02:04:22;;;;;;;10.07;6.18;;;;;;;;;;7586362;19;20032;-74
2024/03/20 02:06:54;;;;;;;10.15;6.18;;;;;;;;;;7577873;19;20015;-74
2024/03/20 02:09:26;;;;;;;7.97;6.05;;;;;;;;;;7576711;19;20015;-74
2024/03/20 02:11:57;;;;;;;11.13;6.82;;;;;;;;;;7582835;19;21407;-74
2024/03/20 02:14:29;;;;;;;10.70;6.88;;;;;;;;;;7573011;19;20018;-74
2024/03/20 02:17:00;;;;;;;12.32;6.60;;;;;;;;;;7584723;19;20019;-74
2024/03/20 02:19:32;;;;;;;10.65;6.57;;;;;;;;;;7583633;19;20097;-74
2024/03/20 02:22:04;;;;;;;16.10;7.00;;;;;;;;;;7582887;19;20018;-74
2024/03/20 02:24:36;;;;;;;10.00;6.57;;;;;;;;;;7567450;19;22235;-74
2024/03/20 02:27:08;;;;;;;9.40;6.95;;;;;;;;;;7582174;19;20015;-74
2024/03/20 02:29:40;;;;;;;10.65;7.30;;;;;;;;;;7572426;19;20014;-73
2024/03/20 02:32:12;;;;;;;10.38;6.55;;;;;;;;;;7575166;19;20056;-74
2024/03/20 02:34:44;;;;;;;10.95;6.35;;;;;;;;;;7572107;19;21666;-75
2024/03/20 02:37:15;;;;;;;9.63;6.28;;;;;;;;;;7585644;19;20015;-74
2024/03/20 02:39:47;;;;;;;11.95;6.75;;;;;;;;;;7580494;19;20408;-75
2024/03/20 02:42:18;;;;;;;13.55;6.13;;;;;;;;;;7576755;19;20091;-73
2024/03/20 02:44:50;;;;;;;7.03;5.15;;;;;;;;;;7584430;19;21324;-73
2024/03/20 02:47:22;;;;;;;8.57;5.22;;;;;;;;;;7583687;19;20037;-73
2024/03/20 02:49:53;;;;;;;9.52;5.25;;;;;;;;;;7570486;19;20021;-73
2024/03/20 02:52:25;;;;;;;9.25;5.68;;;;;;;;;;7578544;19;20022;-73
2024/03/20 02:54:57;;;;;;;8.40;5.68;;;;;;;;;;7581576;19;20026;-75
2024/03/20 02:57:28;;;;;;;9.98;6.28;;;;;;;;;;7570955;19;20025;-75
2024/03/20 03:00:00;;;;;;;9.45;5.90;;;;;;;;;;7554243;19;20018;-75
2024/03/20 03:02:32;;;;;;;10.80;5.80;;;;;;;;;;7552849;19;20633;-73
2024/03/20 03:05:04;;;;;;;9.77;5.43;;;;;;;;;;7574312;19;20044;-76
2024/03/20 03:07:36;;;;;;;10.57;6.47;;;;;;;;;;7582766;19;20022;-73
2024/03/20 03:10:08;;;;;;;10.80;7.03;;;;;;;;;;7565792;19;20014;-73
2024/03/20 03:12:40;;;;;;;9.05;5.40;;;;;;;;;;7580047;19;20358;-74
2024/03/20 03:15:11;;;;;;;9.27;5.60;;;;;;;;;;7587355;19;20025;-74
2024/03/20 03:17:44;;;;;;;7.65;5.65;;;;;;;;;;7576653;19;20184;-74
2024/03/20 03:20:16;;;;;;;7.40;5.47;;;;;;;;;;7572998;19;20025;-74
2024/03/20 03:22:48;;;;;;;9.73;6.00;;;;;;;;;;7587000;19;20014;-74
2024/03/20 03:25:20;;;;;;;9.82;5.75;;;;;;;;;;7563431;19;20018;-74
2024/03/20 03:27:51;;;;;;;11.27;6.25;;;;;;;;;;7583704;19;20018;-74
2024/03/20 03:30:22;;;;;;;9.05;5.97;;;;;;;;;;7588228;19;20022;-74
2024/03/20 03:32:54;;;;;;;11.60;6.82;;;;;;;;;;7584811;19;20018;-74
2024/03/20 03:35:26;;;;;;;9.13;6.22;;;;;;;;;;7574648;19;20069;-74
2024/03/20 03:37:58;;;;;;;9.50;6.05;;;;;;;;;;7583956;19;20649;-74
2024/03/20 03:40:30;;;;;;;10.05;6.20;;;;;;;;;;7573575;19;20010;-74
2024/03/20 03:43:01;;;;;;;8.60;5.30;;;;;;;;;;7580557;19;20401;-74
2024/03/20 03:45:33;;;;;;;8.40;5.88;;;;;;;;;;7582953;19;20014;-74
2024/03/20 03:48:05;;;;;;;8.10;5.13;;;;;;;;;;7577130;19;20029;-74
2024/03/20 03:50:37;;;;;;;8.05;5.38;;;;;;;;;;7565126;19;20450;-74
2024/03/20 03:53:08;;;;;;;8.25;5.20;;;;;;;;;;7583447;19;20019;-73
2024/03/20 03:55:40;;;;;;;7.57;5.20;;;;;;;;;;7573714;19;20018;-73
2024/03/20 03:58:12;;;;;;;13.95;5.78;;;;;;;;;;7578716;19;20490;-74
2024/03/20 04:00:43;;;;;;;7.13;5.05;;;;;;;;;;7575316;19;20030;-73
2024/03/20 04:03:15;;;;;;;9.23;5.25;;;;;;;;;;7584958;19;20106;-73
2024/03/20 04:05:48;;;;;;;7.72;5.50;;;;;;;;;;7581423;19;20027;-74
2024/03/20 04:08:19;;;;;;;8.10;5.47;;;;;;;;;;7587093;19;20024;-73
2024/03/20 04:10:51;;;;;;;7.47;5.60;;;;;;;;;;7572218;19;20024;-74
2024/03/20 04:13:23;;;;;;;9.70;5.70;;;;;;;;;;7578512;19;20650;-73
2024/03/20 04:15:55;;;;;;;8.45;5.68;;;;;;;;;;7572462;19;20014;-73
2024/03/20 04:18:26;;;;;;;11.13;5.18;;;;;;;;;;7582830;19;20528;-74
2024/03/20 04:20:58;;;;;;;10.38;5.50;;;;;;;;;;7579559;19;21236;-74
2024/03/20 04:23:29;;;;;;;9.13;6.03;;;;;;;;;;7555244;19;20807;-74
2024/03/20 04:26:01;;;;;;;7.50;4.70;;;;;;;;;;7572402;19;20014;-73
2024/03/20 04:28:33;;;;;;;8.07;4.93;;;;;;;;;;7558027;19;20022;-73
2024/03/20 04:31:05;;;;;;;7.47;4.72;;;;;;;;;;7582071;19;20040;-73
2024/03/20 04:33:37;;;;;;;7.70;5.00;;;;;;;;;;7539845;19;20698;-73
2024/03/20 04:36:09;;;;;;;7.18;5.22;;;;;;;;;;7566330;19;20021;-73
2024/03/20 04:38:41;;;;;;;9.02;5.57;;;;;;;;;;7571239;19;20074;-74
2024/03/20 04:41:14;;;;;;;6.80;5.15;;;;;;;;;;7564276;19;20102;-74
2024/03/20 04:43:45;;;;;;;8.20;5.78;;;;;;;;;;7586846;19;20136;-73
2024/03/20 04:46:17;;;;;;;7.20;5.07;;;;;;;;;;7560880;19;20036;-73
2024/03/20 04:48:49;;;;;;;9.52;5.25;;;;;;;;;;7572292;19;20014;-74
2024/03/20 04:51:20;;;;;;;9.02;5.10;;;;;;;;;;7582005;19;20145;-74
2024/03/20 04:53:52;;;;;;;6.85;5.03;;;;;;;;;;7564455;19;20019;-74
2024/03/20 04:56:23;;;;;;;8.73;5.50;;;;;;;;;;7558494;19;20013;-74
2024/03/20 04:58:56;;;;;;;7.97;4.80;;;;;;;;;;7549304;19;20019;-74
2024/03/20 05:01:28;;;;;;;10.93;6.20;;;;;;;;;;7552497;19;20022;-74
2024/03/20 05:04:00;;;;;;;8.38;4.35;;;;;;;;;;7559442;19;20733;-74
2024/03/20 05:06:31;;;;;;;6.20;4.60;;;;;;;;;;7558143;19;20014;-74
2024/03/20 05:09:04;;;;;;;8.60;5.15;;;;;;;;;;7540739;19;20627;-75
2024/03/20 05:11:37;;;;;;;6.93;4.67;;;;;;;;;;7554759;19;20018;-74
2024/03/20 05:14:08;;;;;;;8.95;5.00;;;;;;;;;;7550474;19;20030;-74
2024/03/20 05:16:40;;;;;;;8.40;5.03;;;;;;;;;;7559056;19;20395;-74
2024/03/20 05:19:12;;;;;;;8.07;5.10;;;;;;;;;;7554411;19;20015;-74
2024/03/20 05:21:43;;;;;;;8.68;5.50;;;;;;;;;;7560607;19;20018;-75
2024/03/20 05:24:15;;;;;;;9.05;6.22;;;;;;;;;;7554050;19;20797;-73
2024/03/20 05:26:46;;;;;;;11.50;5.45;;;;;;;;;;7547968;19;20014;-72
2024/03/20 05:29:18;;;;;;;9.80;5.50;;;;;;;;;;7553886;19;20015;-73
2024/03/20 05:31:49;;;;;;;7.93;5.63;;;;;;;;;;7547583;19;20026;-72
2024/03/20 05:34:21;;;;;;;7.30;4.97;;;;;;;;;;7571907;19;20014;-74
2024/03/20 05:36:52;;;;;;;9.25;5.55;;;;;;;;;;7540540;19;20033;-72
2024/03/20 05:39:24;;;;;;;7.28;4.75;;;;;;;;;;7565070;19;20057;-71
2024/03/20 05:41:56;;;;;;;10.05;6.35;;;;;;;;;;7568726;19;20114;-72
2024/03/20 05:44:27;;;;;;;15.93;5.93;;;;;;;;;;7567208;19;20018;-72
2024/03/20 05:46:59;;;;;;;9.70;5.28;;;;;;;;;;7526100;19;20116;-72
2024/03/20 05:49:31;;;;;;;11.85;6.55;;;;;;;;;;7554296;19;20524;-73
2024/03/20 05:52:03;;;;;;;10.50;5.70;;;;;;;;;;7535583;19;20022;-73
2024/03/20 05:54:34;;;;;;;11.63;7.03;;;;;;;;;;7549587;19;20117;-73
2024/03/20 05:57:06;;;;;;;13.27;6.55;;;;;;;;;;7582037;19;20613;-73
2024/03/20 05:59:38;;;;;;;12.17;7.27;;;;;;;;;;7573834;19;20906;-73
2024/03/20 06:02:10;;;;;;;12.27;6.53;;;;;;;;;;7562323;19;20022;-73
2024/03/20 06:04:41;;;;;;;10.93;6.28;;;;;;;;;;7554253;19;25569;-73
2024/03/20 06:07:13;;;;;;;10.55;6.10;;;;;;;;;;7571683;19;20818;-73
2024/03/20 06:09:46;;;;;;;12.88;6.38;;;;;;;;;;7577411;19;20018;-73
2024/03/20 06:12:20;;;;;;;15.63;6.47;;;;;;;;;;7538905;19;20010;-74
2024/03/20 06:14:55;;;;;;;9.55;5.72;;;;;;;;;;7512521;19;20019;-73
2024/03/20 06:17:27;;;;;;;13.25;6.80;;;;;;;;;;7549340;19;20032;-74
2024/03/20 06:19:59;;;;;;;11.20;6.10;;;;;;;;;;7529085;19;20015;-72
2024/03/20 06:22:31;;;;;;;9.48;5.93;;;;;;;;;;7544593;19;20022;-72
2024/03/20 06:25:06;;;;;;;11.73;7.15;;;;;;;;;;7556258;19;20336;-72
2024/03/20 06:27:38;;;;;;;18.35;9.00;;;;;;;;;;7551367;19;20041;-72
2024/03/20 06:30:15;;;;;;;13.18;5.70;;;;;;;;;;7534586;19;22352;-72
2024/03/20 06:32:47;;;;;;;7.68;4.00;;;;;;;;;;7524655;19;20023;-72
2024/03/20 06:35:19;;;;;;;7.20;4.50;;;;;;;;;;7558070;19;20018;-74
2024/03/20 06:37:50;;;;;;;6.78;3.50;;;;;;;;;;7575828;19;20010;-73
2024/03/20 06:40:25;;;;;;;6.97;4.72;;;;;;;;;;7582893;19;20014;-74
2024/03/20 06:42:59;;;;;;;6.22;4.25;;;;;;;;;;7577287;19;20018;-72
2024/03/20 06:45:33;;;;;;;7.25;3.58;;;;;;;;;;7582684;19;20018;-74
2024/03/20 06:48:05;;;;;;;6.22;4.30;;;;;;;;;;7574855;19;20054;-71
2024/03/20 06:50:37;;;;;;;7.40;3.85;;;;;;;;;;7574660;19;20018;-71
2024/03/20 06:53:09;;;;;;;7.95;4.05;;;;;;;;;;7576591;19;20015;-71
2024/03/20 06:55:43;;;;;;;6.47;3.80;;;;;;;;;;7572331;19;20014;-72
2024/03/20 06:58:15;;;;;;;7.38;4.07;;;;;;;;;;7573597;19;20019;-71
2024/03/20 07:00:47;;;;;;;7.78;4.00;;;;;;;;;;7581031;19;20018;-72
2024/03/20 07:03:19;;;;;;;9.48;3.35;;;;;;;;;;7574750;19;20022;-72
2024/03/20 07:05:51;;;;;;;4.80;3.10;;;;;;;;;;7558347;19;20023;-72
2024/03/20 07:08:24;;;;;;;4.88;3.15;;;;;;;;;;7563221;19;20694;-73
2024/03/20 07:10:56;;;;;;;6.63;3.42;;;;;;;;;;7584148;19;20025;-74
2024/03/20 07:13:28;;;;;;;8.18;3.47;;;;;;;;;;7587098;19;20650;-74
2024/03/20 07:15:59;;;;;;;5.50;3.60;;;;;;;;;;7575083;19;20114;-74
2024/03/20 07:18:31;;;;;;;6.85;3.28;;;;;;;;;;7572490;19;20094;-74
2024/03/20 07:21:03;;;;;;;4.47;2.72;;;;;;;;;;7557558;19;20026;-74
2024/03/20 07:23:34;;;;;;;5.35;2.97;;;;;;;;;;7580350;19;20015;-73
2024/03/20 07:26:07;;;;;;;7.05;3.05;;;;;;;;;;7562718;19;20011;-73
2024/03/20 07:28:40;;;;;;;8.15;3.20;;;;;;;;;;7574451;19;20015;-73
2024/03/20 07:31:12;;;;;;;5.55;3.10;;;;;;;;;;7575667;19;20007;-73
2024/03/20 07:33:44;;;;;;;6.03;2.90;;;;;;;;;;7586792;19;20018;-73
2024/03/20 07:36:15;;;;;;;9.80;2.88;;;;;;;;;;7575571;19;20646;-73
2024/03/20 07:38:47;;;;;;;4.75;2.42;;;;;;;;;;7580515;19;20019;-75
2024/03/20 07:41:19;;;;;;;5.78;2.40;;;;;;;;;;7557330;19;21771;-74
2024/03/20 07:43:50;;;;;;;4.95;2.78;;;;;;;;;;7543968;19;20599;-74
2024/03/20 07:46:23;;;;;;;5.70;2.88;;;;;;;;;;7562238;19;20872;-74
2024/03/20 07:48:54;;;;;;;5.10;3.08;;;;;;;;;;7561489;19;20014;-72
2024/03/20 07:51:26;;;;;;;6.28;2.90;;;;;;;;;;7567328;19;20010;-74
2024/03/20 07:54:00;;;;;;;3.83;2.35;;;;;;;;;;7565644;19;20026;-72
2024/03/20 07:56:31;;;;;;;2.80;2.20;;;;;;;;;;7578111;19;20022;-72
2024/03/20 07:59:03;;;;;;;3.95;2.20;;;;;;;;;;7561579;19;20050;-72
2024/03/20 08:01:38;;;;;;;5.88;2.13;;;;;;;;;;7544610;19;20029;-72
2024/03/20 08:04:10;;;;;;;3.20;2.20;;;;;;;;;;7557102;19;20094;-72
2024/03/20 08:06:41;;;;;;;3.85;2.15;;;;;;;;;;7561108;19;20015;-71
2024/03/20 08:09:13;;;;;;;2.47;1.92;;;;;;;;;;7569353;19;20018;-72
2024/03/20 08:11:45;;;;;;;5.43;2.13;;;;;;;;;;7586307;19;20026;-72
2024/03/20 08:14:17;;;;;;;3.42;2.05;;;;;;;;;;7590567;19;20014;-72
2024/03/20 08:16:48;;;;;;;3.38;2.00;;;;;;;;;;7585243;19;20042;-72
2024/03/20 08:19:20;;;;;;;1.85;1.67;;;;;;;;;;7586176;19;20034;-73
2024/03/20 08:21:52;;;;;;;3.72;2.00;;;;;;;;;;7577786;19;20268;-73
2024/03/20 08:24:23;;;;;;;3.05;1.95;;;;;;;;;;7581210;19;20843;-72
2024/03/20 08:26:55;;;;;;;3.15;1.55;;;;;;;;;;7574285;19;20060;-73
2024/03/20 08:29:27;;;;;;;3.75;2.05;;;;;;;;;;7583404;19;20366;-73
2024/03/20 08:31:59;;;;;;;2.60;2.03;;;;;;;;;;7572242;19;20011;-73
2024/03/20 08:34:30;;;;;;;3.88;2.00;;;;;;;;;;7561967;19;20442;-74
2024/03/20 08:37:02;;;;;;;2.95;2.13;;;;;;;;;;7563240;19;20030;-72
2024/03/20 08:39:34;;;;;;;3.03;2.13;;;;;;;;;;7563771;19;20021;-74
2024/03/20 08:42:06;;;;;;;4.05;2.50;;;;;;;;;;7572623;19;20026;-74
2024/03/20 08:44:39;;;;;;;3.55;2.33;;;;;;;;;;7569086;19;20018;-72
2024/03/20 08:47:10;;;;;;;3.75;2.00;;;;;;;;;;7556080;19;20022;-72
2024/03/20 08:49:44;;;;;;;3.22;2.45;;;;;;;;;;7567026;19;20014;-73
2024/03/20 08:52:16;;;;;;;3.55;2.30;;;;;;;;;;7576596;19;20291;-73
2024/03/20 08:54:49;;;;;;;4.35;2.15;;;;;;;;;;7577806;19;20018;-72
2024/03/20 08:57:21;;;;;;;3.05;2.22;;;;;;;;;;7588584;19;20583;-74
2024/03/20 08:59:53;;;;;;;2.80;1.92;;;;;;;;;;7579987;19;21188;-72
2024/03/20 09:02:24;;;;;;;4.82;2.38;;;;;;;;;;7557472;19;20029;-72
2024/03/20 09:04:56;;;;;;;3.63;1.98;;;;;;;;;;7576308;19;20372;-73
2024/03/20 09:07:27;;;;;;;3.40;2.05;;;;;;;;;;7582847;19;20463;-73
2024/03/20 09:09:59;;;;;;;4.00;1.90;;;;;;;;;;7582682;19;20078;-74
2024/03/20 09:12:31;;;;;;;3.15;2.17;;;;;;;;;;7589015;19;20018;-72
2024/03/20 09:15:05;;;;;;;3.15;2.00;;;;;;;;;;7555990;19;20018;-74
2024/03/20 09:17:36;;;;;;;2.90;2.35;;;;;;;;;;7578806;19;20018;-74
2024/03/20 09:20:19;;;;;;;5.35;2.22;;;;;;;;;;7581377;19;20022;-74
2024/03/20 09:22:52;;;;;;;3.57;2.20;;;;;;;;;;7570377;19;20527;-74
2024/03/20 09:25:23;;;;;;;3.58;2.55;;;;;;;;;;7556377;19;20287;-74
2024/03/20 09:27:55;;;;;;;4.25;2.60;;;;;;;;;;7576627;19;20018;-74
2024/03/20 09:30:26;;;;;;;3.42;2.33;;;;;;;;;;7588878;19;22391;-73
2024/03/20 09:32:58;;;;;;;5.75;2.45;;;;;;;;;;7587829;19;20026;-72
2024/03/20 09:35:29;;;;;;;5.10;2.30;;;;;;;;;;7576184;19;20971;-72
2024/03/20 09:38:02;;;;;;;4.35;2.38;;;;;;;;;;7573189;19;20015;-72
2024/03/20 09:40:33;;;;;;;4.20;2.40;;;;;;;;;;7570435;19;20010;-73
2024/03/20 09:43:05;;;;;;;3.00;2.35;;;;;;;;;;7589362;19;20021;-74
2024/03/20 09:45:37;;;;;;;4.20;2.30;;;;;;;;;;7595639;19;20018;-74
2024/03/20 09:48:09;;;;;;;5.95;2.47;;;;;;;;;;7596443;19;20018;-73
2024/03/20 09:50:40;;;;;;;4.22;2.60;;;;;;;;;;7591237;19;20031;-74
2024/03/20 09:53:12;;;;;;;4.20;2.50;;;;;;;;;;7584667;19;20082;-73
2024/03/20 09:55:44;;;;;;;4.57;2.60;;;;;;;;;;7585530;19;20018;-74
2024/03/20 09:58:16;;;;;;;3.65;2.50;;;;;;;;;;7589119;19;20055;-74
2024/03/20 10:00:48;;;;;;;2.88;2.45;;;;;;;;;;7588155;19;20022;-74
2024/03/20 10:03:19;;;;;;;7.43;2.45;;;;;;;;;;7587251;19;20563;-73
2024/03/20 10:05:52;;;;;;;2.78;2.10;;;;;;;;;;7588906;19;20014;-73
2024/03/20 10:08:23;;;;;;;5.85;2.35;;;;;;;;;;7590149;19;20089;-72
2024/03/20 10:10:55;;;;;;;2.85;2.28;;;;;;;;;;7585893;19;20014;-74
2024/03/20 10:13:27;;;;;;;5.70;2.53;;;;;;;;;;7582692;19;20516;-73
2024/03/20 10:16:09;;;;;;;3.67;2.47;;;;;;;;;;7567820;19;21984;-73
2024/03/20 10:18:42;;;;;;;4.03;2.17;;;;;;;;;;7575438;19;20018;-73
2024/03/20 10:21:14;;;;;;;4.63;2.30;;;;;;;;;;7564580;19;20306;-74
2024/03/20 10:23:45;;;;;;;4.95;2.30;;;;;;;;;;7571305;19;20025;-75
2024/03/20 10:26:17;;;;;;;4.20;2.40;;;;;;;;;;7560174;19;20014;-73
2024/03/20 10:28:51;;;;;;;4.53;2.08;;;;;;;;;;7572866;19;20019;-74
2024/03/20 10:31:23;;;;;;;3.38;2.50;;;;;;;;;;7577815;19;20021;-73
2024/03/20 10:33:55;;;;;;;4.30;2.10;;;;;;;;;;7590947;19;20215;-73
2024/03/20 10:36:26;;;;;;;2.75;1.92;;;;;;;;;;7586721;19;20468;-73
2024/03/20 10:39:00;;;;;;;2.45;1.80;;;;;;;;;;7590930;19;20734;-73
2024/03/20 10:41:32;;;;;;;3.00;1.87;;;;;;;;;;7583224;19;20019;-73
2024/03/20 10:44:06;;;;;;;4.05;2.13;;;;;;;;;;7586810;19;20805;-73
2024/03/20 10:46:38;;;;;;;2.50;2.05;;;;;;;;;;7589007;19;20112;-73
2024/03/20 10:49:11;;;;;;;3.40;2.40;;;;;;;;;;7590295;19;20022;-73
2024/03/20 10:51:42;;;;;;;3.05;2.30;;;;;;;;;;7577049;19;20018;-73
2024/03/20 10:54:14;;;;;;;3.53;2.47;;;;;;;;;;7562257;19;20032;-74
2024/03/20 10:56:52;;;;;;;4.28;2.50;;;;;;;;;;7587131;19;20014;-73
2024/03/20 10:59:23;;;;;;;4.43;2.40;;;;;;;;;;7581743;19;20014;-73
2024/03/20 11:01:55;;;;;;;4.40;2.53;;;;;;;;;;7590739;19;20626;-73
2024/03/20 11:04:36;;;;;;;3.63;2.10;;;;;;;;;;7585021;19;20006;-73
2024/03/20 11:07:32;;;;;;;2.78;2.15;;;;;;;;;;7581794;19;20025;-73
2024/03/20 11:10:04;;;;;;;3.33;2.33;;;;;;;;;;7585645;19;20025;-75
2024/03/20 11:12:38;;;;;;;3.70;2.10;;;;;;;;;;7581127;19;20025;-73
2024/03/20 11:15:14;;;;;;;2.97;1.65;;;;;;;;;;7587629;19;20015;-73
2024/03/20 11:17:52;;;;;;;2.72;1.92;;;;;;;;;;7593189;19;20014;-73
2024/03/20 11:20:33;;;;;;;4.68;1.88;;;;;;;;;;7586570;19;20658;-73
2024/03/20 11:23:10;;;;;;;3.50;2.10;;;;;;;;;;7584280;19;20057;-75
2024/03/20 11:25:42;;;;;;;2.20;1.80;;;;;;;;;;7577067;19;20135;-73
2024/03/20 11:28:14;;;;;;;3.25;2.03;;;;;;;;;;7577013;19;20026;-74
2024/03/20 11:30:46;;;;;;;2.75;2.10;;;;;;;;;;7576232;19;20112;-73
2024/03/20 11:33:18;;;;;;;2.95;1.77;;;;;;;;;;7579992;19;21846;-73
2024/03/20 11:35:50;;;;;;;3.03;2.00;;;;;;;;;;7549495;19;20022;-73
2024/03/20 11:38:28;;;;;;;1.83;1.50;;;;;;;;;;7584201;19;20040;-71
2024/03/20 11:41:00;;;;;;;3.20;1.67;;;;;;;;;;7601005;19;20018;-74
2024/03/20 11:43:33;;;;;;;2.53;1.85;;;;;;;;;;7578795;19;20019;-73
2024/03/20 11:46:05;;;;;;;9.30;2.05;;;;;;;;;;7513178;19;20015;-74
2024/03/20 11:48:37;;;;;;;3.35;2.00;;;;;;;;;;7557628;19;20010;-73
2024/03/20 11:51:10;;;;;;;2.28;1.77;;;;;;;;;;7556917;19;20026;-73
2024/03/20 11:53:42;;;;;;;4.40;1.90;;;;;;;;;;7568919;19;20051;-74
2024/03/20 11:56:14;;;;;;;5.45;1.88;;;;;;;;;;7563100;19;20022;-73
2024/03/20 11:58:55;;;;;;;3.33;1.77;;;;;;;;;;7551814;19;20135;-73
2024/03/20 12:01:28;;;;;;;2.30;1.63;;;;;;;;;;7562172;19;20011;-73
2024/03/20 12:04:01;;;;;;;4.65;1.85;;;;;;;;;;7571128;19;20018;-73
2024/03/20 12:06:37;;;;;;;4.82;2.03;;;;;;;;;;7578530;19;20525;-73
2024/03/20 12:09:15;;;;;;;2.15;1.65;;;;;;;;;;7568854;19;20021;-73
2024/03/20 12:11:47;;;;;;;3.20;1.60;;;;;;;;;;7560159;19;20026;-75
2024/03/20 12:14:18;;;;;;;5.90;2.17;;;;;;;;;;7570530;19;20010;-72
2024/03/20 12:16:50;;;;;;;1.85;1.60;;;;;;;;;;7560876;19;20035;-72
2024/03/20 12:19:21;;;;;;;4.40;1.58;;;;;;;;;;7551130;19;20018;-73
2024/03/20 12:21:53;;;;;;;2.75;1.58;;;;;;;;;;7564373;19;20026;-73
2024/03/20 12:24:25;;;;;;;2.88;1.80;;;;;;;;;;7562611;19;20052;-75
2024/03/20 12:26:56;;;;;;;2.28;1.65;;;;;;;;;;7542073;19;20101;-72
2024/03/20 12:29:28;;;;;;;2.10;1.60;;;;;;;;;;7544737;19;20025;-73
2024/03/20 12:31:59;;;;;;;3.42;1.55;;;;;;;;;;7551488;19;20014;-73
2024/03/20 12:34:31;;;;;;;4.53;1.70;;;;;;;;;;7525933;19;20258;-72
2024/03/20 12:37:05;;;;;;;4.53;1.88;;;;;;;;;;7550553;19;21100;-72
2024/03/20 12:39:37;;;;;;;2.53;1.50;;;;;;;;;;7562335;19;20054;-72
2024/03/20 12:42:08;;;;;;;2.78;1.88;;;;;;;;;;7534161;19;20094;-72
2024/03/20 12:44:40;;;;;;;3.50;1.40;;;;;;;;;;7553153;19;20021;-72
2024/03/20 12:47:11;;;;;;;1.80;1.20;;;;;;;;;;7548155;19;20570;-72
2024/03/20 12:49:49;;;;;;;4.43;1.65;;;;;;;;;;7530257;19;20015;-72
2024/03/20 12:52:21;;;;;;;2.38;1.23;;;;;;;;;;7566225;19;20025;-72
2024/03/20 12:54:52;;;;;;;2.17;1.40;;;;;;;;;;7561315;19;20593;-73
2024/03/20 12:57:25;;;;;;;1.55;1.25;;;;;;;;;;7536293;19;20022;-72
2024/03/20 12:59:57;;;;;;;3.83;1.35;;;;;;;;;;7543454;19;20046;-72
2024/03/20 13:02:31;;;;;;;4.38;1.50;;;;;;;;;;7569779;19;20014;-72
2024/03/20 13:05:04;;;;;;;1.60;1.30;;;;;;;;;;7594421;19;20019;-73
2024/03/20 13:07:39;;;;;;;2.13;1.25;;;;;;;;;;7562469;19;20431;-74
2024/03/20 13:10:11;;;;;;;2.17;1.30;;;;;;;;;;7561600;19;20022;-73
2024/03/20 13:12:43;;;;;;;1.40;1.30;;;;;;;;;;7530822;19;20393;-73
2024/03/20 13:15:16;;;;;;;1.67;1.33;;;;;;;;;;7545723;19;20014;-73
2024/03/20 13:17:47;;;;;;;3.90;1.27;;;;;;;;;;7560341;19;20006;-73
2024/03/20 13:20:19;;;;;;;6.05;1.58;;;;;;;;;;7563179;19;20025;-73
2024/03/20 13:22:50;;;;;;;2.22;1.13;;;;;;;;;;7548461;19;20160;-73
2024/03/20 13:25:22;;;;;;;1.60;1.45;;;;;;;;;;7561342;19;20998;-73
2024/03/20 13:27:53;;;;;;;2.72;1.38;;;;;;;;;;7556440;19;20015;-73
2024/03/20 13:30:27;;;;;;;2.08;1.30;;;;;;;;;;7561781;19;20022;-72
2024/03/20 13:32:58;;;;;;;2.75;1.40;;;;;;;;;;7567473;19;20237;-73
2024/03/20 13:35:30;;;;;;;2.67;1.33;;;;;;;;;;7557887;19;20389;-73
2024/03/20 13:38:08;;;;;;;4.25;1.20;;;;;;;;;;7558446;19;20018;-73
2024/03/20 13:40:42;;;;;;;3.30;1.35;;;;;;;;;;7571801;19;20018;-73
2024/03/20 13:45:56;;;;;;;2.97;1.40;;;;;;;;;;7553240;19;20014;-73
2024/03/20 13:48:28;;;;;;;2.08;1.20;;;;;;;;;;7566690;19;20011;-72
2024/03/20 13:51:00;;;;;;;7.45;1.73;;;;;;;;;;7539084;19;20025;-72
2024/03/20 13:53:32;;;;;;;3.08;1.48;;;;;;;;;;7558099;19;20474;-72
2024/03/20 13:56:04;;;;;;;1.95;1.45;;;;;;;;;;7535067;19;22502;-72
2024/03/20 13:58:36;;;;;;;3.00;1.63;;;;;;;;;;7567761;19;20018;-73
2024/03/20 14:01:18;;;;;;;3.85;1.58;;;;;;;;;;7575058;19;20029;-72
2024/03/20 14:03:49;;;;;;;3.85;1.42;;;;;;;;;;7560597;19;20022;-73
2024/03/20 14:06:22;;;;;;;1.67;1.48;;;;;;;;;;7567504;19;20018;-72
2024/03/20 14:08:54;;;;;;;3.35;1.70;;;;;;;;;;7562376;19;21100;-72
2024/03/20 14:11:27;;;;;;;4.07;1.42;;;;;;;;;;7575338;19;20014;-73
2024/03/20 14:13:59;;;;;;;2.53;1.53;;;;;;;;;;7574539;19;20018;-73
2024/03/20 14:16:31;;;;;;;2.63;1.40;;;;;;;;;;7569663;19;20034;-73
2024/03/20 14:19:05;;;;;;;5.57;2.03;;;;;;;;;;7582010;19;20097;-73
2024/03/20 14:21:36;;;;;;;4.80;2.00;;;;;;;;;;7574112;19;20038;-73
2024/03/20 14:24:09;;;;;;;3.60;2.05;;;;;;;;;;7562893;19;20018;-73
2024/03/20 14:26:42;;;;;;;5.28;1.92;;;;;;;;;;7506007;19;20052;-73
2024/03/20 14:29:14;;;;;;;;;;;;;;;;;;7544347;19;20446;-73
2024/03/20 14:31:45;;;;;;;3.90;2.00;;;;;;;;;;7546135;19;19922;-73
2024/03/20 14:34:17;;;;;;;3.33;1.98;;;;;;;;;;7560056;19;20481;-73
2024/03/20 14:36:49;;;;;;;4.05;1.95;;;;;;;;;;7555946;19;20021;-73
2024/03/20 14:39:21;;;;;;;3.65;1.90;;;;;;;;;;7547854;19;20011;-73
2024/03/20 14:41:53;;;;;;;2.70;1.92;;;;;;;;;;7559768;19;20022;-73
2024/03/20 14:44:25;;;;;;;6.50;2.10;;;;;;;;;;7565318;19;20048;-73
2024/03/20 14:46:56;;;;;;;2.83;2.10;;;;;;;;;;7568574;19;20992;-73
2024/03/20 14:49:28;;;;;;;5.07;2.38;;;;;;;;;;7579786;19;20010;-73
2024/03/20 14:52:00;;;;;;;6.03;2.50;;;;;;;;;;7567368;19;20014;-73
2024/03/20 14:54:32;;;;;;;5.75;2.33;;;;;;;;;;7562713;19;20015;-73
2024/03/20 14:57:04;;;;;;;4.97;2.53;;;;;;;;;;7580795;19;20776;-73
2024/03/20 14:59:37;;;;;;;3.95;2.60;;;;;;;;;;7565751;19;20106;-71
2024/03/20 15:02:18;;;;;;;6.07;2.85;;;;;;;;;;7556682;19;20018;-73
2024/03/20 15:04:50;;;;;;;7.93;2.83;;;;;;;;;;7552576;19;20023;-72
2024/03/20 15:07:24;;;;;;;2.92;2.28;;;;;;;;;;7555518;19;20014;-73
2024/03/20 15:09:56;;;;;;;3.85;2.53;;;;;;;;;;7556605;19;20745;-73
2024/03/20 15:12:28;;;;;;;6.53;2.30;;;;;;;;;;7552179;19;20026;-73